Time;durP1;ratioP1;P1;durP2;ratioP2;P2;SDS_P1;SDS_P2;PMS_P1;PMS_P2;Temp;Humidity;BMP_temperature;BMP_pressure;BME280_temperature;BME280_humidity;BME280_pressure;Samples;Min_cycle;Max_cycle;Signal;HPM_P1;HPM_P2
2021/08/03 00:01:47;;;;;;;10.90;4.35;;;;;;;12.57;91.13;101690.88;4987585;28;20058;-82
2021/08/03 00:04:19;;;;;;;10.75;5.07;;;;;;;12.61;90.74;101705.91;4966166;28;20133;-82
2021/08/03 00:06:49;;;;;;;10.77;4.30;;;;;;;12.64;90.30;101702.31;4987031;28;20051;-82
2021/08/03 00:09:18;;;;;;;10.50;4.60;;;;;;;12.62;90.52;101699.66;4987826;28;20089;-82
2021/08/03 00:11:47;;;;;;;9.30;4.50;;;;;;;12.56;90.55;101691.78;4986169;28;20093;-81
2021/08/03 00:14:15;;;;;;;13.07;4.82;;;;;;;12.53;89.96;101694.53;4985098;28;20062;-72
2021/08/03 00:16:45;;;;;;;13.43;5.45;;;;;;;12.52;90.17;101691.00;4978449;28;20068;-72
2021/08/03 00:19:13;;;;;;;12.18;5.05;;;;;;;12.52;90.52;101691.00;4980458;28;20136;-73
2021/08/03 00:21:41;;;;;;;10.32;5.07;;;;;;;12.51;90.67;101696.38;4977838;28;20139;-72
2021/08/03 00:24:09;;;;;;;8.82;4.28;;;;;;;12.50;90.46;101683.94;4978864;28;20145;-72
2021/08/03 00:26:39;;;;;;;10.27;5.22;;;;;;;12.49;91.04;101682.16;4981862;28;20139;-72
2021/08/03 00:29:07;;;;;;;8.30;4.30;;;;;;;12.46;90.62;101688.50;4977366;28;20066;-72
2021/08/03 00:31:34;;;;;;;9.00;4.22;;;;;;;12.44;91.34;101684.94;4982074;28;20070;-73
2021/08/03 00:34:04;;;;;;;11.38;4.65;;;;;;;12.44;90.79;101684.94;4977399;28;20066;-72
2021/08/03 00:36:32;;;;;;;9.05;4.15;;;;;;;12.43;91.14;101685.00;4979267;28;20062;-72
2021/08/03 00:39:00;;;;;;;9.98;4.40;;;;;;;12.39;91.48;101688.69;4980477;28;20296;-72
2021/08/03 00:41:31;;;;;;;9.60;4.32;;;;;;;12.36;90.29;101688.75;4979768;28;20062;-73
2021/08/03 00:43:59;;;;;;;13.07;6.03;;;;;;;12.28;91.63;101678.25;4980680;28;20058;-72
2021/08/03 00:46:27;;;;;;;10.60;4.47;;;;;;;12.25;91.31;101683.69;4978673;28;20073;-72
2021/08/03 00:48:55;;;;;;;9.23;4.32;;;;;;;12.22;91.39;101676.59;4981864;28;20085;-72
2021/08/03 00:51:24;;;;;;;10.40;4.78;;;;;;;12.22;92.12;101676.59;4980892;28;20104;-72
2021/08/03 00:53:52;;;;;;;8.95;4.18;;;;;;;12.24;92.34;101671.22;4980206;28;20057;-72
2021/08/03 00:56:20;;;;;;;11.15;5.22;;;;;;;12.25;91.75;101673.84;4982341;28;20046;-72
2021/08/03 00:58:48;;;;;;;11.77;4.70;;;;;;;12.27;92.22;101669.34;4976671;28;20058;-73
2021/08/03 01:01:16;;;;;;;9.55;4.55;;;;;;;12.22;92.35;101667.72;4981893;28;20650;-72
2021/08/03 01:03:44;;;;;;;10.38;4.53;;;;;;;12.19;92.17;101668.69;4976989;28;20182;-72
2021/08/03 01:06:18;;;;;;;8.95;4.43;;;;;;;12.15;91.65;101672.34;4979126;28;20118;-72
2021/08/03 01:08:55;;;;;;;11.13;4.20;;;;;;;12.16;92.47;101663.41;4981613;28;20512;-72
2021/08/03 01:11:30;;;;;;;9.00;4.30;;;;;;;12.17;92.63;101662.47;4978249;28;20058;-72
2021/08/03 01:14:05;;;;;;;10.20;4.72;;;;;;;12.15;91.98;101656.28;4983171;28;20985;-73
2021/08/03 01:16:41;;;;;;;9.98;4.68;;;;;;;12.14;91.45;101662.56;4977758;28;20066;-73
2021/08/03 01:19:22;;;;;;;8.98;4.43;;;;;;;12.13;92.07;101663.47;4981973;28;20062;-72
2021/08/03 01:22:02;;;;;;;10.50;4.20;;;;;;;12.11;91.78;101654.63;4975451;28;20073;-74
2021/08/03 01:24:50;;;;;;;8.55;4.53;;;;;;;12.12;92.26;101651.00;4982755;28;20058;-73
2021/08/03 01:27:33;;;;;;;8.55;4.55;;;;;;;12.10;91.40;101647.50;4976203;28;20058;-72
2021/08/03 01:30:02;;;;;;;9.02;4.70;;;;;;;12.04;91.93;101659.25;4980038;28;20450;-73
2021/08/03 01:32:34;;;;;;;8.75;4.10;;;;;;;11.99;91.97;101653.13;4977377;28;20067;-73
2021/08/03 01:35:04;;;;;;;9.63;4.20;;;;;;;11.99;92.10;101657.59;4978216;28;20066;-72
2021/08/03 01:37:34;;;;;;;9.30;4.28;;;;;;;12.00;92.57;101648.66;4982770;28;20153;-73
2021/08/03 01:40:06;;;;;;;14.48;4.65;;;;;;;12.01;92.81;101655.78;4977095;28;20109;-73
2021/08/03 01:42:38;;;;;;;12.70;4.70;;;;;;;11.98;91.97;101648.69;4980944;28;20093;-72
2021/08/03 01:45:10;;;;;;;11.18;4.85;;;;;;;11.99;92.24;101654.94;4979305;28;20176;-73
2021/08/03 01:47:39;;;;;;;7.50;4.20;;;;;;;12.01;92.81;101655.78;4979052;28;20050;-73
2021/08/03 01:50:09;;;;;;;8.93;4.18;;;;;;;12.01;93.16;101659.31;4981897;28;20453;-73
2021/08/03 01:52:38;;;;;;;10.45;4.15;;;;;;;11.99;92.50;101660.28;4973687;28;20062;-73
2021/08/03 01:55:09;;;;;;;10.45;4.13;;;;;;;11.98;92.92;101666.53;4983267;28;20062;-73
2021/08/03 01:57:40;;;;;;;8.25;4.15;;;;;;;11.98;93.32;101669.22;4979296;28;20066;-73
2021/08/03 02:00:11;;;;;;;8.75;4.53;;;;;;;11.94;93.33;101671.94;4982401;28;20062;-73
2021/08/03 02:02:42;;;;;;;10.10;4.40;;;;;;;11.90;92.97;101662.22;4985793;28;20106;-81
2021/08/03 02:05:13;;;;;;;10.02;4.05;;;;;;;11.90;93.67;101662.22;4986635;28;20066;-82
2021/08/03 02:07:42;;;;;;;11.27;4.97;;;;;;;11.93;93.42;101656.81;4990027;28;20042;-82
2021/08/03 02:10:12;;;;;;;10.65;4.60;;;;;;;11.92;93.26;101655.06;4984639;28;20283;-82
2021/08/03 02:12:43;;;;;;;10.70;4.50;;;;;;;11.89;93.70;101660.47;4983595;28;20089;-82
2021/08/03 02:15:14;;;;;;;8.55;3.95;;;;;;;11.85;93.05;101661.47;4982764;28;20563;-73
2021/08/03 02:17:42;;;;;;;9.55;3.95;;;;;;;11.78;93.61;101663.41;4980851;28;20113;-73
2021/08/03 02:20:10;;;;;;;11.02;4.82;;;;;;;11.76;93.30;101651.88;4983017;28;20062;-73
2021/08/03 02:22:38;;;;;;;7.55;3.42;;;;;;;11.73;93.41;101651.94;4980097;28;20062;-73
2021/08/03 02:25:10;;;;;;;8.55;4.13;;;;;;;11.73;93.80;101654.63;4981020;28;20357;-73
2021/08/03 02:27:39;;;;;;;9.85;4.28;;;;;;;11.70;93.31;101649.34;4978870;28;20446;-73
2021/08/03 02:30:09;;;;;;;9.55;4.40;;;;;;;11.67;93.30;101649.41;4983119;28;20070;-72
2021/08/03 02:32:45;;;;;;;10.77;4.38;;;;;;;11.67;94.10;101657.41;4983140;28;20113;-82
2021/08/03 02:35:17;;;;;;;8.80;3.85;;;;;;;11.66;94.06;101654.78;4988475;28;20062;-83
2021/08/03 02:37:50;;;;;;;10.02;4.47;;;;;;;11.64;93.66;101653.94;4991500;28;20108;-82
2021/08/03 02:40:18;;;;;;;8.95;4.03;;;;;;;11.55;94.12;101653.25;4986692;28;20341;-73
2021/08/03 02:42:47;;;;;;;12.63;4.43;;;;;;;11.48;94.19;101648.97;4984268;28;20408;-73
2021/08/03 02:45:17;;;;;;;9.93;4.57;;;;;;;11.47;94.48;101643.66;4981822;28;20121;-73
2021/08/03 02:47:51;;;;;;;9.43;4.18;;;;;;;11.45;94.71;101646.34;4983265;28;20058;-72
2021/08/03 02:50:21;;;;;;;9.40;3.83;;;;;;;11.42;94.21;101646.41;4982478;28;20062;-73
2021/08/03 02:52:53;;;;;;;9.30;3.88;;;;;;;11.37;94.09;101645.63;4980413;28;20564;-73
2021/08/03 02:55:24;;;;;;;8.30;3.83;;;;;;;11.35;94.84;101652.81;4981843;28;20054;-73
2021/08/03 02:57:56;;;;;;;10.23;5.13;;;;;;;11.31;94.03;101645.78;4979346;28;20068;-73
2021/08/03 03:00:25;;;;;;;9.95;4.05;;;;;;;11.29;94.30;101651.16;4982772;28;20062;-73
2021/08/03 03:02:54;;;;;;;9.63;4.25;;;;;;;11.30;95.10;101647.56;4978110;28;20054;-72
2021/08/03 03:05:26;;;;;;;8.85;3.85;;;;;;;11.23;94.58;101648.63;4981655;28;20399;-73
2021/08/03 03:08:00;;;;;;;10.50;3.83;;;;;;;11.22;93.80;101649.56;4979735;28;20062;-73
2021/08/03 03:10:31;;;;;;;11.98;4.80;;;;;;;11.15;95.20;101643.47;4979412;28;20063;-73
2021/08/03 03:13:05;;;;;;;11.18;4.32;;;;;;;11.13;95.48;101650.59;4979229;28;20442;-73
2021/08/03 03:15:33;;;;;;;7.40;4.00;;;;;;;11.15;95.39;101650.56;4979033;28;20070;-73
2021/08/03 03:18:03;;;;;;;7.78;3.45;;;;;;;11.12;94.58;101646.19;4981674;28;20069;-73
2021/08/03 03:20:33;;;;;;;8.30;4.07;;;;;;;11.09;94.20;101650.72;4981892;28;20062;-73
2021/08/03 03:23:02;;;;;;;8.07;4.30;;;;;;;11.08;95.17;101654.28;4981146;28;20078;-73
2021/08/03 03:25:31;;;;;;;9.23;3.70;;;;;;;11.03;95.51;101652.63;4982341;28;20050;-73
2021/08/03 03:28:00;;;;;;;9.60;4.13;;;;;;;11.00;95.36;101655.34;4981471;28;20070;-73
2021/08/03 03:30:29;;;;;;;7.88;3.95;;;;;;;11.01;96.23;101657.09;4981767;28;20066;-73
2021/08/03 03:33:02;;;;;;;11.20;4.20;;;;;;;10.95;94.97;101648.34;4982759;28;20857;-73
2021/08/03 03:35:32;;;;;;;;;;;;;;;10.96;96.13;101650.97;4981883;28;20090;-73
2021/08/03 03:38:01;;;;;;;8.27;3.80;;;;;;;10.89;95.51;101637.78;4980164;28;19930;-73
2021/08/03 03:40:30;;;;;;;10.38;3.95;;;;;;;10.88;96.43;101652.03;4980480;28;20503;-72
2021/08/03 03:42:58;;;;;;;12.20;5.68;;;;;;;10.82;95.29;101645.03;4981958;28;20077;-73
2021/08/03 03:45:26;;;;;;;11.50;4.50;;;;;;;10.81;95.27;101641.50;4981004;28;20102;-72
2021/08/03 03:47:59;;;;;;;10.38;4.90;;;;;;;10.82;95.64;101640.56;4981476;28;20124;-72
2021/08/03 03:50:36;;;;;;;12.30;5.38;;;;;;;10.83;95.35;101647.69;4982234;28;20069;-72
2021/08/03 03:53:09;;;;;;;11.70;5.07;;;;;;;10.82;95.36;101639.69;4981873;28;20054;-73
2021/08/03 03:55:37;;;;;;;10.77;4.63;;;;;;;10.81;96.21;101633.50;4980630;28;20330;-73
2021/08/03 03:58:07;;;;;;;10.73;4.68;;;;;;;10.86;96.30;101645.84;4980553;28;20137;-73
2021/08/03 04:00:37;;;;;;;12.02;4.05;;;;;;;10.84;95.82;101636.09;4979522;28;20066;-73
2021/08/03 04:03:06;;;;;;;10.48;4.80;;;;;;;10.85;96.22;101639.63;4980703;28;20062;-73
2021/08/03 04:05:39;;;;;;;12.48;5.10;;;;;;;10.88;96.32;101628.91;4978672;28;20366;-72
2021/08/03 04:08:08;;;;;;;15.38;7.00;;;;;;;10.88;95.73;101636.91;4980669;28;20062;-72
2021/08/03 04:10:38;;;;;;;16.70;6.40;;;;;;;10.86;95.97;101633.38;4981198;28;20066;-73
2021/08/03 04:13:07;;;;;;;13.52;5.60;;;;;;;10.78;95.45;101633.53;4977601;28;20066;-72
2021/08/03 04:15:36;;;;;;;9.80;5.05;;;;;;;10.76;95.75;101635.38;4981748;28;20234;-73
2021/08/03 04:18:05;;;;;;;11.20;5.10;;;;;;;10.79;95.12;101639.75;4980307;28;20634;-72
2021/08/03 04:20:33;;;;;;;10.98;4.97;;;;;;;10.77;95.09;101642.44;4981661;28;20426;-73
2021/08/03 04:23:02;;;;;;;9.52;4.78;;;;;;;10.75;95.12;101641.59;4980159;28;20458;-73
2021/08/03 04:25:30;;;;;;;12.70;5.15;;;;;;;10.70;95.87;101635.47;4979461;28;20107;-73
2021/08/03 04:27:57;;;;;;;13.05;5.47;;;;;;;10.73;96.72;101637.22;4981409;28;20078;-72
2021/08/03 04:30:25;;;;;;;8.60;4.38;;;;;;;10.74;96.70;101647.84;4980549;28;20059;-74
2021/08/03 04:32:53;;;;;;;13.00;5.65;;;;;;;10.77;96.74;101638.91;4981608;28;20074;-73
2021/08/03 04:35:21;;;;;;;10.80;5.38;;;;;;;10.81;97.17;101630.81;4976678;28;20350;-73
2021/08/03 04:37:49;;;;;;;11.10;5.43;;;;;;;10.92;96.87;101632.38;4980968;28;20144;-72
2021/08/03 04:40:21;;;;;;;11.55;5.18;;;;;;;10.95;96.96;101624.31;4979366;28;20054;-75
2021/08/03 04:42:50;;;;;;;12.85;5.75;;;;;;;11.02;96.40;101634.81;4980447;28;20058;-74
2021/08/03 04:45:18;;;;;;;11.65;6.03;;;;;;;11.11;96.67;101627.53;4981435;28;20050;-74
2021/08/03 04:47:52;;;;;;;14.18;6.00;;;;;;;11.14;96.34;101624.78;4979375;28;20069;-73
2021/08/03 04:50:21;;;;;;;;;;;;;;;11.16;96.25;101622.97;4982498;28;20058;-73
2021/08/03 04:52:49;;;;;;;14.18;6.38;;;;;;;11.19;95.92;101614.88;4979085;28;19989;-72
2021/08/03 04:55:19;;;;;;;13.30;5.82;;;;;;;11.23;95.53;101623.72;4980242;28;20392;-73
2021/08/03 04:57:47;;;;;;;12.82;6.47;;;;;;;11.23;95.26;101615.69;4979990;28;20051;-73
2021/08/03 05:00:16;;;;;;;15.43;6.63;;;;;;;11.30;95.19;101617.31;4978849;28;20051;-73
2021/08/03 05:02:45;;;;;;;13.90;6.45;;;;;;;11.33;96.19;101618.13;4984141;28;20066;-73
2021/08/03 05:05:15;;;;;;;14.02;6.38;;;;;;;11.40;95.22;101613.50;4976843;28;20070;-72
2021/08/03 05:07:54;;;;;;;15.00;6.30;;;;;;;11.47;95.30;101615.13;4980346;28;20066;-74
2021/08/03 05:10:24;;;;;;;12.65;6.65;;;;;;;11.58;95.32;101613.09;4978533;28;20069;-73
2021/08/03 05:12:52;;;;;;;15.38;6.43;;;;;;;11.71;95.29;101624.38;4979891;28;20066;-73
2021/08/03 05:15:20;;;;;;;14.73;6.63;;;;;;;11.83;94.92;101623.16;4986964;28;20135;-73
2021/08/03 05:17:48;;;;;;;13.60;6.30;;;;;;;11.90;94.25;101618.53;4977479;28;20070;-73
2021/08/03 05:20:17;;;;;;;15.68;6.80;;;;;;;12.01;94.38;101624.53;4978957;28;20073;-73
2021/08/03 05:22:46;;;;;;;13.88;6.68;;;;;;;12.11;94.09;101626.06;4977468;28;20379;-73
2021/08/03 05:25:14;;;;;;;15.25;8.40;;;;;;;12.20;92.12;101616.03;4979269;28;20065;-77
2021/08/03 05:27:44;;;;;;;15.52;7.00;;;;;;;12.28;92.17;101619.41;4983135;28;20063;-80
2021/08/03 05:30:12;;;;;;;18.40;7.63;;;;;;;12.41;91.73;101611.91;4978836;28;20058;-78
2021/08/03 05:32:40;;;;;;;15.35;6.70;;;;;;;12.42;90.66;101613.66;4986419;28;20322;-77
2021/08/03 05:35:09;;;;;;;14.25;7.10;;;;;;;12.44;90.31;101612.69;4980513;28;20397;-78
2021/08/03 05:37:38;;;;;;;11.52;6.30;;;;;;;12.50;90.30;101609.84;4983836;28;20092;-77
2021/08/03 05:40:09;;;;;;;13.48;6.00;;;;;;;12.55;90.30;101614.19;4983161;28;20050;-78
2021/08/03 05:42:37;;;;;;;13.80;6.10;;;;;;;12.57;89.00;101602.53;4983201;28;20358;-77
2021/08/03 05:45:08;;;;;;;9.93;5.65;;;;;;;12.85;89.35;101604.41;4986757;28;20141;-79
2021/08/03 05:47:36;;;;;;;13.02;5.72;;;;;;;13.18;88.45;101602.53;4982872;28;20066;-79
2021/08/03 05:50:06;;;;;;;11.05;6.03;;;;;;;13.46;86.63;101607.03;4985720;28;20094;-77
2021/08/03 05:52:35;;;;;;;10.30;4.85;;;;;;;13.76;85.92;101605.16;4980758;28;20073;-78
2021/08/03 05:55:05;;;;;;;11.00;4.85;;;;;;;14.00;83.89;101610.66;4985035;28;20121;-79
2021/08/03 05:57:33;;;;;;;8.02;4.47;;;;;;;14.19;81.83;101595.63;4984588;28;20066;-79
2021/08/03 06:00:01;;;;;;;12.50;4.93;;;;;;;14.34;81.58;101602.28;4982670;28;20070;-79
2021/08/03 06:02:30;;;;;;;9.68;4.43;;;;;;;14.61;80.20;101601.34;4985265;28;20074;-77
2021/08/03 06:05:01;;;;;;;8.32;4.18;;;;;;;14.83;77.93;101594.28;4980908;28;20392;-80
2021/08/03 06:07:38;;;;;;;9.13;4.28;;;;;;;15.28;79.57;101596.09;4982420;28;20061;-74
2021/08/03 06:10:15;;;;;;;7.20;3.72;;;;;;;15.37;77.56;101593.97;4980602;28;20062;-73
2021/08/03 06:12:50;;;;;;;8.00;4.18;;;;;;;15.64;76.14;101583.91;4984479;28;20483;-74
2021/08/03 06:15:18;;;;;;;8.98;3.75;;;;;;;15.92;76.71;101593.53;4981862;28;20062;-74
2021/08/03 06:17:59;;;;;;;11.70;4.15;;;;;;;16.08;75.10;101591.94;4978777;28;20590;-75
2021/08/03 06:20:27;;;;;;;7.57;4.03;;;;;;;16.22;72.25;101594.03;4984436;28;20116;-74
2021/08/03 06:22:57;;;;;;;6.90;3.40;;;;;;;16.07;71.23;101592.88;4978794;28;20084;-74
2021/08/03 06:25:27;;;;;;;6.63;3.03;;;;;;;16.21;70.13;101592.31;4984484;28;20074;-74
2021/08/03 06:28:00;;;;;;;6.35;3.15;;;;;;;16.49;71.15;101597.31;4981565;28;20519;-74
2021/08/03 06:30:30;;;;;;;7.65;3.40;;;;;;;16.66;69.40;101583.09;4982683;28;20206;-74
2021/08/03 06:33:02;;;;;;;7.15;3.00;;;;;;;16.80;69.32;101586.03;4982738;28;20699;-74
2021/08/03 06:35:30;;;;;;;10.25;3.40;;;;;;;16.80;68.95;101586.03;4978364;28;20185;-74
2021/08/03 06:37:58;;;;;;;6.93;2.78;;;;;;;16.65;68.49;101589.41;4984421;28;20061;-74
2021/08/03 06:40:30;;;;;;;5.53;2.42;;;;;;;17.29;67.35;101576.59;4980966;28;20066;-74
2021/08/03 06:43:08;;;;;;;7.93;2.55;;;;;;;17.10;65.92;101584.69;4983277;28;20046;-74
2021/08/03 06:45:36;;;;;;;4.72;2.13;;;;;;;16.68;66.31;101589.28;4981660;28;20053;-72
2021/08/03 06:48:10;;;;;;;5.03;2.60;;;;;;;16.28;67.50;101582.09;4981367;28;20104;-73
2021/08/03 06:50:40;;;;;;;;;;;;;;;16.17;68.29;101593.34;4982363;28;20058;-73
2021/08/03 06:53:11;;;;;;;6.25;2.40;;;;;;;15.91;69.81;101598.06;4981692;28;19932;-72
2021/08/03 06:55:41;;;;;;;6.43;2.50;;;;;;;15.78;69.61;101599.50;4982810;28;20438;-72
2021/08/03 06:58:18;;;;;;;5.60;2.50;;;;;;;15.76;70.38;101598.69;4981683;28;20399;-72
2021/08/03 07:00:47;;;;;;;5.75;2.53;;;;;;;15.62;69.30;101600.09;4980397;28;20061;-73
2021/08/03 07:03:24;;;;;;;6.32;2.25;;;;;;;15.50;70.61;101585.34;4982846;28;20062;-73
2021/08/03 07:05:54;;;;;;;5.50;2.15;;;;;;;15.50;70.83;101589.84;4981181;28;20074;-72
2021/08/03 07:08:22;;;;;;;4.75;2.08;;;;;;;15.50;71.51;101587.16;4982490;28;20069;-72
2021/08/03 07:10:52;;;;;;;5.13;2.20;;;;;;;16.09;71.14;101590.13;4981966;28;20104;-72
2021/08/03 07:13:20;;;;;;;5.45;2.40;;;;;;;16.39;69.79;101578.00;4983029;28;20179;-72
2021/08/03 07:15:50;;;;;;;5.55;2.40;;;;;;;17.02;68.81;101579.66;4982118;28;20074;-72
2021/08/03 07:18:21;;;;;;;6.72;2.70;;;;;;;17.55;66.54;101578.88;4982438;28;20061;-72
2021/08/03 07:20:50;;;;;;;5.00;2.28;;;;;;;18.11;65.86;101582.38;4980446;28;20050;-72
2021/08/03 07:23:20;;;;;;;4.70;2.38;;;;;;;17.52;65.61;101581.75;4979065;28;20066;-72
2021/08/03 07:25:50;;;;;;;4.85;2.03;;;;;;;17.97;65.95;101579.50;4980872;28;20058;-72
2021/08/03 07:28:19;;;;;;;5.80;2.58;;;;;;;18.18;65.03;101574.81;4977269;28;20306;-73
2021/08/03 07:30:47;;;;;;;6.47;2.53;;;;;;;18.38;64.08;101575.59;4981958;28;20133;-73
2021/08/03 07:33:16;;;;;;;5.90;2.30;;;;;;;18.54;63.51;101581.06;4978170;28;20120;-73
2021/08/03 07:35:45;;;;;;;5.63;2.28;;;;;;;18.46;63.70;101576.94;4976728;28;20065;-76
2021/08/03 07:38:13;;;;;;;3.60;2.03;;;;;;;18.88;63.16;101569.28;4982804;28;20077;-77
2021/08/03 07:40:42;;;;;;;6.03;2.30;;;;;;;18.89;62.24;101571.06;4978379;28;20081;-77
2021/08/03 07:43:10;;;;;;;5.82;2.10;;;;;;;18.85;62.45;101577.59;4981477;28;20157;-73
2021/08/03 07:45:39;;;;;;;8.25;2.65;;;;;;;18.97;62.45;101570.63;4980331;28;20404;-73
2021/08/03 07:48:09;;;;;;;4.53;2.08;;;;;;;19.12;60.97;101567.06;4984397;28;20069;-74
2021/08/03 07:50:37;;;;;;;4.30;1.83;;;;;;;19.16;61.40;101567.78;4980024;28;20062;-74
2021/08/03 07:53:07;;;;;;;4.57;1.80;;;;;;;19.72;60.07;101574.44;4980684;28;20061;-74
2021/08/03 07:55:35;;;;;;;6.88;2.22;;;;;;;20.00;59.75;101570.09;4981936;28;20054;-74
2021/08/03 07:58:03;;;;;;;5.13;1.90;;;;;;;20.25;59.36;101563.22;4981227;28;20665;-74
2021/08/03 08:00:32;;;;;;;4.60;2.13;;;;;;;20.68;58.28;101557.84;4980565;28;20062;-73
2021/08/03 08:03:01;;;;;;;6.70;2.05;;;;;;;20.19;57.70;101566.28;4980044;28;20367;-74
2021/08/03 08:05:29;;;;;;;7.90;2.15;;;;;;;20.74;56.80;101557.47;4982015;28;20077;-74
2021/08/03 08:07:58;;;;;;;3.05;1.85;;;;;;;20.59;56.38;101567.41;4979832;28;20062;-74
2021/08/03 08:10:27;;;;;;;5.22;2.20;;;;;;;19.48;59.43;101567.72;4980292;28;20091;-74
2021/08/03 08:12:55;;;;;;;8.43;2.20;;;;;;;19.51;59.79;101556.72;4978976;28;20066;-73
2021/08/03 08:15:23;;;;;;;3.33;2.00;;;;;;;20.35;58.02;101556.25;4980773;28;20046;-74
2021/08/03 08:17:51;;;;;;;5.07;1.92;;;;;;;20.56;57.62;101561.28;4980953;28;20046;-77
2021/08/03 08:20:18;;;;;;;7.95;2.00;;;;;;;20.93;56.13;101559.00;4980375;28;20065;-77
2021/08/03 08:22:46;;;;;;;8.32;2.30;;;;;;;21.35;54.16;101559.84;4982584;28;20058;-77
2021/08/03 08:25:14;;;;;;;4.88;2.08;;;;;;;21.30;54.51;101564.72;4978439;28;20058;-78
2021/08/03 08:27:44;;;;;;;5.65;2.25;;;;;;;21.31;52.88;101567.34;4981586;28;20358;-77
2021/08/03 08:30:14;;;;;;;7.38;2.13;;;;;;;21.64;52.76;101569.69;4981055;28;20938;-78
2021/08/03 08:32:43;;;;;;;3.95;1.80;;;;;;;21.50;52.69;101567.00;4979247;28;20464;-79
2021/08/03 08:35:31;;;;;;;7.57;2.10;;;;;;;20.63;54.50;101568.09;4980652;28;20198;-78
2021/08/03 08:37:59;;;;;;;5.20;1.95;;;;;;;19.81;56.39;101564.91;4978352;28;20077;-77
2021/08/03 08:40:27;;;;;;;4.95;2.10;;;;;;;20.78;54.36;101560.84;4982839;28;20062;-78
2021/08/03 08:42:56;;;;;;;3.95;2.08;;;;;;;19.94;55.53;101562.38;4980093;28;20107;-78
2021/08/03 08:45:24;;;;;;;5.78;2.10;;;;;;;19.86;57.20;101562.81;4982586;28;20046;-77
2021/08/03 08:47:51;;;;;;;3.78;2.03;;;;;;;19.55;57.22;101558.31;4982450;28;20187;-78
2021/08/03 08:50:22;;;;;;;7.40;2.78;;;;;;;19.22;57.93;101567.41;4979204;28;20069;-77
2021/08/03 08:52:53;;;;;;;6.10;2.30;;;;;;;19.10;57.42;101562.69;4980715;28;20296;-77
2021/08/03 08:55:22;;;;;;;3.70;2.17;;;;;;;18.95;58.86;101559.91;4977849;28;20100;-77
2021/08/03 08:57:51;;;;;;;7.07;2.28;;;;;;;18.90;59.88;101559.28;4979712;28;20058;-78
2021/08/03 09:00:22;;;;;;;5.28;2.15;;;;;;;18.59;59.99;101552.84;4978765;28;20096;-77
2021/08/03 09:02:53;;;;;;;5.78;2.50;;;;;;;18.83;59.77;101560.56;4977627;28;20153;-77
2021/08/03 09:05:28;;;;;;;4.25;2.17;;;;;;;18.72;61.07;101562.97;4976997;28;20082;-78
2021/08/03 09:07:59;;;;;;;4.90;1.92;;;;;;;18.44;61.17;101562.66;4975183;28;20070;-77
2021/08/03 09:10:28;;;;;;;4.82;2.17;;;;;;;18.59;61.82;101565.47;4978508;28;20068;-77
2021/08/03 09:13:02;;;;;;;5.72;2.30;;;;;;;18.52;61.46;101569.47;4975866;28;20055;-76
2021/08/03 09:15:32;;;;;;;5.47;2.45;;;;;;;18.38;62.72;101564.81;4977434;28;20055;-78
2021/08/03 09:18:15;;;;;;;4.90;2.00;;;;;;;18.32;61.47;101565.13;4976019;28;23697;-77
2021/08/03 09:20:45;;;;;;;4.15;1.90;;;;;;;18.33;61.92;101569.56;4979030;28;20058;-78
2021/08/03 09:23:14;;;;;;;5.53;2.30;;;;;;;18.11;61.16;101560.75;4976825;28;20062;-77
2021/08/03 09:25:54;;;;;;;6.43;2.30;;;;;;;18.21;62.07;101563.00;4973383;28;20065;-78
2021/08/03 09:28:22;;;;;;;4.03;2.38;;;;;;;18.25;61.22;101561.88;4978342;28;20141;-78
2021/08/03 09:30:51;;;;;;;5.82;2.40;;;;;;;18.34;61.20;101556.00;4976567;28;20070;-77
2021/08/03 09:33:25;;;;;;;4.55;2.78;;;;;;;18.55;60.48;101555.78;4978202;28;20069;-74
2021/08/03 09:35:53;;;;;;;;;;;;;;;18.85;60.22;101550.56;4979380;28;20066;-74
2021/08/03 09:38:22;;;;;;;5.20;2.35;;;;;;;18.83;60.00;101550.66;4974507;28;19926;-75
2021/08/03 09:40:52;;;;;;;5.45;2.30;;;;;;;19.11;59.80;101548.22;4978460;28;20137;-75
2021/08/03 09:43:28;;;;;;;5.43;2.80;;;;;;;20.09;56.86;101547.00;4977338;28;20062;-74
2021/08/03 09:45:59;;;;;;;5.05;2.20;;;;;;;21.23;54.63;101546.16;4978895;28;20050;-73
2021/08/03 09:48:39;;;;;;;7.70;2.80;;;;;;;21.04;52.66;101540.16;4975649;28;20066;-73
2021/08/03 09:51:09;;;;;;;5.05;2.28;;;;;;;20.69;53.42;101548.75;4979663;28;20069;-73
2021/08/03 09:53:45;;;;;;;4.32;2.30;;;;;;;20.30;55.23;101551.09;4976548;28;20042;-75
2021/08/03 09:56:15;;;;;;;6.25;2.58;;;;;;;21.08;53.21;101542.59;4978696;28;20473;-73
2021/08/03 09:58:51;;;;;;;5.53;2.35;;;;;;;22.14;51.91;101539.16;4979474;28;20073;-73
2021/08/03 10:01:28;;;;;;;5.95;2.83;;;;;;;22.06;49.21;101538.81;4976987;28;20487;-73
2021/08/03 10:03:58;;;;;;;4.68;2.60;;;;;;;22.26;48.31;101537.44;4981930;28;20066;-73
2021/08/03 10:06:27;;;;;;;7.38;2.90;;;;;;;22.69;49.11;101531.66;4976408;28;20066;-73
2021/08/03 10:08:56;;;;;;;6.95;2.70;;;;;;;23.01;46.76;101537.47;4979471;28;20479;-72
2021/08/03 10:11:25;;;;;;;9.02;3.45;;;;;;;22.95;47.58;101532.47;4981155;28;20141;-72
2021/08/03 10:13:55;;;;;;;9.55;3.28;;;;;;;23.33;46.31;101534.25;4978639;28;20093;-73
2021/08/03 10:16:24;;;;;;;7.85;3.30;;;;;;;22.61;48.69;101524.06;4982349;28;20068;-73
2021/08/03 10:18:57;;;;;;;9.25;3.63;;;;;;;22.02;46.62;101532.72;4979844;28;20097;-77
2021/08/03 10:21:29;;;;;;;7.60;4.23;;;;;;;22.69;46.16;101531.66;4983281;28;20065;-77
2021/08/03 10:24:03;;;;;;;6.87;3.23;;;;;;;23.09;46.30;101526.06;4982954;28;20121;-76
2021/08/03 10:26:31;;;;;;;6.57;3.60;;;;;;;22.59;46.19;101530.59;4982767;28;20427;-73
2021/08/03 10:29:21;;;;;;;8.63;3.90;;;;;;;22.00;47.15;101537.41;4984227;28;20062;-73
2021/08/03 10:31:50;;;;;;;8.43;4.00;;;;;;;22.30;47.18;101542.53;4979046;28;20070;-72
2021/08/03 10:34:55;;;;;;;5.93;3.13;;;;;;;21.75;48.51;101541.78;4983475;28;20161;-72
2021/08/03 10:37:26;;;;;;;7.88;3.65;;;;;;;21.58;49.10;101545.66;4979092;28;20062;-72
2021/08/03 10:39:56;;;;;;;7.40;3.70;;;;;;;21.52;48.61;101546.09;4984127;28;20072;-72
2021/08/03 10:42:25;;;;;;;8.10;3.65;;;;;;;21.58;49.06;101540.22;4978613;28;20080;-71
2021/08/03 10:44:57;;;;;;;5.60;3.20;;;;;;;21.44;48.83;101538.41;4983003;28;20445;-75
2021/08/03 10:47:44;;;;;;;8.82;4.07;;;;;;;21.55;46.46;101539.56;4978918;28;20133;-75
2021/08/03 10:50:29;;;;;;;6.95;4.22;;;;;;;21.36;47.48;101539.91;4980127;28;20369;-76
2021/08/03 10:53:02;;;;;;;8.75;4.07;;;;;;;21.43;48.03;101533.06;4983641;28;20046;-76
2021/08/03 10:55:36;;;;;;;9.05;4.28;;;;;;;21.21;48.27;101528.22;4983188;28;20062;-75
2021/08/03 10:58:34;;;;;;;11.02;4.40;;;;;;;21.59;48.00;101536.53;4986552;28;20042;-72
2021/08/03 11:01:03;;;;;;;8.18;4.20;;;;;;;21.78;47.41;101533.44;4978932;28;20042;-71
2021/08/03 11:03:44;;;;;;;10.45;3.72;;;;;;;22.38;47.04;101525.72;4984009;28;20073;-72
2021/08/03 11:06:36;;;;;;;9.68;3.75;;;;;;;22.03;47.63;101523.56;4981798;28;20073;-72
2021/08/03 11:09:34;;;;;;;7.90;3.90;;;;;;;21.23;48.46;101527.16;4982067;28;20066;-72
2021/08/03 11:12:34;;;;;;;8.98;3.70;;;;;;;20.79;49.46;101532.75;4979254;28;20152;-72
2021/08/03 11:15:36;;;;;;;8.10;4.10;;;;;;;20.93;48.87;101523.75;4984084;28;20299;-72
2021/08/03 11:18:07;;;;;;;7.55;3.80;;;;;;;20.83;49.38;101523.44;4977132;28;20076;-72
2021/08/03 11:21:03;;;;;;;7.70;3.60;;;;;;;20.75;49.57;101526.66;4984795;28;20062;-74
2021/08/03 11:24:09;;;;;;;7.63;3.10;;;;;;;20.26;57.68;101527.88;4980376;28;20077;-72
2021/08/03 11:26:41;;;;;;;8.70;3.03;;;;;;;20.56;56.11;101524.22;4982752;28;20066;-71
2021/08/03 11:29:11;;;;;;;8.52;2.83;;;;;;;20.22;54.70;101530.88;4978138;28;20070;-71
2021/08/03 11:31:52;;;;;;;5.57;2.90;;;;;;;20.40;54.48;101524.31;4982504;28;20155;-71
2021/08/03 11:34:31;;;;;;;8.68;3.50;;;;;;;20.11;56.15;101527.00;4978722;28;20055;-71
2021/08/03 11:37:05;;;;;;;5.32;2.70;;;;;;;20.20;56.32;101524.69;4979188;28;20505;-71
2021/08/03 11:39:35;;;;;;;7.05;3.30;;;;;;;20.13;56.12;101516.94;4980806;28;20067;-71
2021/08/03 11:42:06;;;;;;;8.05;3.53;;;;;;;20.19;58.09;101520.22;4980537;28;20050;-71
2021/08/03 11:44:34;;;;;;;9.57;3.08;;;;;;;20.46;55.91;101521.19;4983481;28;20047;-71